Time;durP1;ratioP1;P1;durP2;ratioP2;P2;SDS_P1;SDS_P2;PMS_P1;PMS_P2;Temp;Humidity;BMP_temperature;BMP_pressure;BME280_temperature;BME280_humidity;BME280_pressure;Samples;Min_cycle;Max_cycle;Signal;HPM_P1;HPM_P2
2022/07/17 00:00:22;;;;;;;4.18;2.50;;;9.30;99.90;;;;;;6253175;22;20046;-83
2022/07/17 00:13:10;;;;;;;3.40;2.15;;;9.20;99.90;;;;;;6266434;22;20019;-82
2022/07/17 00:15:36;;;;;;;5.13;2.90;;;9.20;99.90;;;;;;6257803;22;20011;-81
2022/07/17 00:18:02;;;;;;;4.82;2.40;;;9.10;99.90;;;;;;6254868;22;20018;-81
2022/07/17 00:20:29;;;;;;;3.95;2.28;;;9.10;99.90;;;;;;6254631;22;20015;-81
2022/07/17 00:22:55;;;;;;;3.75;2.28;;;9.10;99.90;;;;;;6255579;22;20038;-81
2022/07/17 00:25:22;;;;;;;3.97;2.63;;;9.00;99.90;;;;;;6257267;22;20030;-81
2022/07/17 00:27:48;;;;;;;4.25;2.65;;;9.00;99.90;;;;;;6258858;22;20060;-82
2022/07/17 00:30:13;;;;;;;5.93;2.92;;;9.00;99.90;;;;;;6280388;22;20102;-81
2022/07/17 00:32:40;;;;;;;5.72;3.05;;;9.00;99.90;;;;;;6255400;22;20022;-82
2022/07/17 00:35:07;;;;;;;4.63;2.78;;;8.90;99.90;;;;;;6285839;22;20011;-82
2022/07/17 00:37:41;;;;;;;3.92;2.80;;;8.90;99.90;;;;;;6268766;22;20042;-82
2022/07/17 00:40:09;;;;;;;4.13;2.40;;;8.90;99.90;;;;;;6260543;22;20012;-81
2022/07/17 00:42:35;;;;;;;4.55;2.67;;;8.90;99.90;;;;;;6281892;22;20007;-82
2022/07/17 00:45:01;;;;;;;5.15;2.63;;;8.80;99.90;;;;;;6256605;22;20117;-82
2022/07/17 00:47:26;;;;;;;5.18;2.95;;;8.80;99.90;;;;;;6257016;22;20447;-82
2022/07/17 00:49:52;;;;;;;6.65;2.83;;;8.80;99.90;;;;;;6257697;22;20021;-81
2022/07/17 00:52:18;;;;;;;4.82;3.13;;;8.80;99.90;;;;;;6254593;22;20018;-80
2022/07/17 00:54:45;;;;;;;3.63;2.70;;;8.80;99.90;;;;;;6283606;22;20046;-81
2022/07/17 00:57:14;;;;;;;4.18;3.05;;;8.70;99.90;;;;;;6284713;22;20007;-81
2022/07/17 00:59:40;;;;;;;5.95;2.83;;;8.70;99.90;;;;;;6283019;22;20018;-81
2022/07/17 01:02:08;;;;;;;7.40;3.13;;;8.70;99.90;;;;;;6256996;22;20015;-80
2022/07/17 01:04:34;;;;;;;6.13;3.42;;;8.70;99.90;;;;;;6256911;22;20011;-81
2022/07/17 01:07:01;;;;;;;4.60;2.70;;;8.60;99.90;;;;;;6259547;22;20462;-81
2022/07/17 01:09:28;;;;;;;3.90;2.70;;;8.60;99.90;;;;;;6284626;22;20019;-81
2022/07/17 01:11:54;;;;;;;4.72;2.70;;;8.60;99.90;;;;;;6257507;22;20015;-81
2022/07/17 01:14:22;;;;;;;5.03;3.15;;;8.60;99.90;;;;;;6259785;22;20526;-81
2022/07/17 01:16:48;;;;;;;3.28;2.63;;;8.60;99.90;;;;;;6262084;22;20023;-81
2022/07/17 01:19:14;;;;;;;6.40;2.70;;;8.50;99.90;;;;;;6261476;22;20029;-81
2022/07/17 01:21:44;;;;;;;3.13;2.55;;;8.50;99.90;;;;;;6259623;22;20086;-81
2022/07/17 01:24:10;;;;;;;5.85;2.75;;;8.50;99.90;;;;;;6259828;22;20007;-80
2022/07/17 01:26:36;;;;;;;3.95;2.97;;;8.40;99.90;;;;;;6259633;22;20011;-81
2022/07/17 01:29:02;;;;;;;5.03;3.13;;;8.40;99.90;;;;;;6285806;22;20050;-81
2022/07/17 01:31:28;;;;;;;3.90;3.10;;;8.40;99.90;;;;;;6286922;22;20455;-80
2022/07/17 01:33:54;;;;;;;5.72;2.88;;;8.40;99.90;;;;;;6287776;22;20017;-81
2022/07/17 01:36:24;;;;;;;4.38;3.00;;;8.40;99.90;;;;;;6261815;22;20015;-81
2022/07/17 01:38:50;;;;;;;6.55;3.25;;;8.40;99.90;;;;;;6287389;22;20007;-81
2022/07/17 01:41:16;;;;;;;5.13;3.25;;;8.40;99.90;;;;;;6263553;22;20086;-81
2022/07/17 01:43:41;;;;;;;5.43;3.30;;;8.40;99.90;;;;;;6263054;22;20016;-81
2022/07/17 01:46:07;;;;;;;5.63;3.58;;;8.40;99.90;;;;;;6288133;22;20011;-81
2022/07/17 01:48:33;;;;;;;4.43;3.20;;;8.40;99.90;;;;;;6264017;22;20019;-81
2022/07/17 01:50:59;;;;;;;6.35;3.20;;;8.30;99.90;;;;;;6290720;22;20038;-81
2022/07/17 01:53:25;;;;;;;5.45;3.15;;;8.30;99.90;;;;;;6264755;22;20474;-81
2022/07/17 01:55:50;;;;;;;4.40;3.45;;;8.30;99.90;;;;;;6265087;22;20062;-81
2022/07/17 01:58:16;;;;;;;3.58;3.00;;;8.20;99.90;;;;;;6266499;22;20451;-81
2022/07/17 02:00:42;;;;;;;3.33;2.70;;;8.20;99.90;;;;;;6266828;22;20018;-81
2022/07/17 02:03:08;;;;;;;3.75;2.83;;;8.20;99.90;;;;;;6292745;22;20007;-81
2022/07/17 02:05:34;;;;;;;4.15;3.40;;;8.20;99.90;;;;;;6287370;22;20014;-81
2022/07/17 02:07:59;;;;;;;4.28;3.60;;;8.20;99.90;;;;;;6291966;22;20007;-81
2022/07/17 02:10:26;;;;;;;4.38;2.95;;;8.10;99.90;;;;;;6259175;22;20007;-81
2022/07/17 02:12:51;;;;;;;4.47;2.72;;;8.10;99.90;;;;;;6281751;22;20019;-81
2022/07/17 02:15:17;;;;;;;4.47;3.10;;;8.10;99.90;;;;;;6257256;22;20057;-80
2022/07/17 02:17:43;;;;;;;4.70;2.65;;;8.10;99.90;;;;;;6257201;22;20073;-80
2022/07/17 02:20:10;;;;;;;4.75;2.88;;;8.10;99.90;;;;;;6257670;22;20007;-80
2022/07/17 02:22:36;;;;;;;4.70;3.08;;;8.00;99.90;;;;;;6257256;22;20003;-80
2022/07/17 02:25:03;;;;;;;4.63;3.35;;;8.00;99.90;;;;;;6257214;22;20082;-81
2022/07/17 02:27:31;;;;;;;4.55;3.63;;;8.00;99.90;;;;;;6256661;22;20053;-81
2022/07/17 02:29:57;;;;;;;4.45;3.47;;;7.90;99.90;;;;;;6256544;22;20021;-81
2022/07/17 02:32:22;;;;;;;4.70;2.90;;;7.90;99.90;;;;;;6258354;22;20046;-81
2022/07/17 02:34:48;;;;;;;4.72;2.97;;;7.90;99.90;;;;;;6283963;22;20011;-81
2022/07/17 02:37:14;;;;;;;3.63;2.90;;;7.90;99.90;;;;;;6283830;22;20043;-80
2022/07/17 02:39:52;;;;;;;3.92;3.25;;;7.90;99.90;;;;;;6257973;22;20007;-81
2022/07/17 02:42:19;;;;;;;5.35;3.40;;;7.90;99.90;;;;;;6257846;22;20007;-80
2022/07/17 02:44:45;;;;;;;4.90;3.42;;;7.90;99.90;;;;;;6258944;22;20439;-80
2022/07/17 02:47:11;;;;;;;3.28;2.97;;;7.90;99.90;;;;;;6258720;22;20015;-80
2022/07/17 02:49:36;;;;;;;4.00;3.10;;;7.90;99.90;;;;;;6258111;22;20007;-80
2022/07/17 02:52:02;;;;;;;4.00;3.00;;;7.90;99.90;;;;;;6283923;22;20019;-80
2022/07/17 02:54:28;;;;;;;6.20;3.40;;;7.80;99.90;;;;;;6284352;22;20011;-80
2022/07/17 02:56:53;;;;;;;4.05;2.70;;;7.80;99.90;;;;;;6259163;22;20011;-80
2022/07/17 02:59:19;;;;;;;4.30;3.17;;;7.80;99.90;;;;;;6258587;22;20011;-81
2022/07/17 03:01:44;;;;;;;3.70;2.72;;;7.80;99.90;;;;;;6258350;22;20011;-81
2022/07/17 03:04:10;;;;;;;3.80;3.00;;;7.70;99.90;;;;;;6284693;22;20011;-81
2022/07/17 03:06:35;;;;;;;3.45;2.50;;;7.70;99.90;;;;;;6259307;22;20324;-81
2022/07/17 03:09:01;;;;;;;5.18;2.85;;;7.70;99.90;;;;;;6259471;22;20011;-80
2022/07/17 03:11:27;;;;;;;4.53;3.00;;;7.70;99.90;;;;;;6259691;22;20457;-80
2022/07/17 03:13:53;;;;;;;3.53;2.40;;;7.70;99.90;;;;;;6259761;22;20577;-81
2022/07/17 03:16:18;;;;;;;4.00;3.05;;;7.70;99.90;;;;;;6284536;22;20011;-81
2022/07/17 03:18:44;;;;;;;4.25;3.05;;;7.70;99.90;;;;;;6284963;22;20174;-80
2022/07/17 03:21:10;;;;;;;3.72;2.83;;;7.70;99.90;;;;;;6286757;22;20007;-81
2022/07/17 03:23:35;;;;;;;3.00;2.70;;;7.70;99.90;;;;;;6261057;22;20007;-81
2022/07/17 03:26:01;;;;;;;4.45;2.63;;;7.60;99.90;;;;;;6286608;22;20638;-81
2022/07/17 03:28:26;;;;;;;3.13;2.75;;;7.60;99.90;;;;;;6261790;22;20022;-81
2022/07/17 03:30:52;;;;;;;3.38;2.90;;;7.60;99.90;;;;;;6262326;22;20074;-80
2022/07/17 03:33:18;;;;;;;3.65;2.85;;;7.60;99.90;;;;;;6261042;22;20347;-81
2022/07/17 03:35:43;;;;;;;3.78;2.97;;;7.60;99.90;;;;;;6287201;22;20007;-81
2022/07/17 03:38:09;;;;;;;4.35;2.97;;;7.60;99.90;;;;;;6260898;22;20039;-81
2022/07/17 03:40:34;;;;;;;4.13;2.80;;;7.60;99.90;;;;;;6285540;22;20527;-81
2022/07/17 03:43:00;;;;;;;3.78;2.80;;;7.60;99.90;;;;;;6260624;22;20055;-81
2022/07/17 03:45:26;;;;;;;3.70;2.60;;;7.60;99.90;;;;;;6261983;22;20011;-81
2022/07/17 03:47:51;;;;;;;3.83;2.88;;;7.60;99.90;;;;;;6263160;22;20011;-81
2022/07/17 03:50:17;;;;;;;3.33;2.63;;;7.50;99.90;;;;;;6290242;22;20011;-81
2022/07/17 03:52:42;;;;;;;3.00;2.65;;;7.50;99.90;;;;;;6263344;22;20410;-81
2022/07/17 03:55:08;;;;;;;4.25;2.83;;;7.60;99.90;;;;;;6264184;22;20011;-81
2022/07/17 03:57:34;;;;;;;2.78;2.40;;;7.60;99.90;;;;;;6289800;22;20007;-81
2022/07/17 04:00:00;;;;;;;3.70;3.03;;;7.60;99.90;;;;;;6263983;22;20517;-81
2022/07/17 04:02:25;;;;;;;4.40;2.70;;;7.70;99.90;;;;;;6262834;22;20516;-81
2022/07/17 04:04:51;;;;;;;4.28;3.13;;;7.80;99.90;;;;;;6289703;22;20078;-81
2022/07/17 04:07:30;;;;;;;4.97;3.63;;;7.80;99.90;;;;;;6263499;22;20082;-81
2022/07/17 04:09:57;;;;;;;4.22;3.55;;;7.90;99.90;;;;;;6262692;22;20371;-81
2022/07/17 04:12:24;;;;;;;5.28;3.75;;;8.00;99.90;;;;;;6288675;22;20343;-81
2022/07/17 04:14:50;;;;;;;4.05;3.40;;;8.10;99.90;;;;;;6288885;22;20017;-81
2022/07/17 04:17:15;;;;;;;5.32;3.70;;;8.20;99.90;;;;;;6262737;22;20015;-81
2022/07/17 04:19:41;;;;;;;5.25;3.53;;;8.20;99.90;;;;;;6288310;22;20083;-81
2022/07/17 04:22:06;;;;;;;5.85;3.22;;;8.30;99.90;;;;;;6288780;22;20007;-81
2022/07/17 04:24:32;;;;;;;5.30;3.30;;;8.40;99.90;;;;;;6264220;22;20056;-81
2022/07/17 04:26:58;;;;;;;4.00;3.38;;;8.50;99.90;;;;;;6290656;22;20466;-81
2022/07/17 04:29:23;;;;;;;5.20;3.50;;;8.50;99.90;;;;;;6264460;22;20065;-81
2022/07/17 04:31:49;;;;;;;4.47;3.85;;;8.60;99.90;;;;;;6260394;22;20023;-81
2022/07/17 04:34:15;;;;;;;5.15;4.20;;;8.70;99.90;;;;;;6280970;22;20019;-81
2022/07/17 04:36:40;;;;;;;4.50;3.35;;;8.70;99.90;;;;;;6255469;22;20167;-81
2022/07/17 04:39:06;;;;;;;4.43;3.63;;;8.80;99.90;;;;;;6255974;22;20015;-81
2022/07/17 04:41:31;;;;;;;7.72;4.07;;;8.90;99.90;;;;;;6255578;22;20015;-81
2022/07/17 04:43:57;;;;;;;5.20;3.60;;;9.00;99.90;;;;;;6280761;22;20320;-81
2022/07/17 04:46:23;;;;;;;4.97;3.38;;;9.10;99.90;;;;;;6255954;22;20355;-81
2022/07/17 04:48:48;;;;;;;4.50;3.15;;;9.20;99.90;;;;;;6280850;22;20011;-81
2022/07/17 04:51:14;;;;;;;5.75;4.15;;;9.30;99.90;;;;;;6282176;22;20104;-81
2022/07/17 04:53:40;;;;;;;4.82;3.65;;;9.30;99.90;;;;;;6281331;22;20090;-81
2022/07/17 04:56:05;;;;;;;4.55;3.45;;;9.40;99.90;;;;;;6256316;22;20347;-81
2022/07/17 04:58:31;;;;;;;5.80;4.22;;;9.60;99.90;;;;;;6282089;22;20082;-81
2022/07/17 05:00:56;;;;;;;7.22;5.63;;;9.70;99.90;;;;;;6257047;22;20052;-81
2022/07/17 05:03:22;;;;;;;5.07;4.43;;;9.90;99.90;;;;;;6256521;22;20060;-81
2022/07/17 05:05:47;;;;;;;6.65;4.32;;;10.10;99.90;;;;;;6256512;22;20528;-81
2022/07/17 05:08:13;;;;;;;5.25;3.80;;;10.40;99.90;;;;;;6282161;22;20008;-81
2022/07/17 05:10:39;;;;;;;6.20;3.38;;;10.60;99.90;;;;;;6282062;22;20008;-81
2022/07/17 05:13:04;;;;;;;4.10;3.50;;;10.70;99.90;;;;;;6256613;22;20003;-81
2022/07/17 05:15:30;;;;;;;3.78;3.10;;;10.80;99.90;;;;;;6284107;22;20011;-81
2022/07/17 05:17:56;;;;;;;5.90;2.63;;;10.90;99.90;;;;;;6259928;22;20014;-81
2022/07/17 05:20:21;;;;;;;3.40;2.60;;;11.00;99.90;;;;;;6284951;22;20064;-81
2022/07/17 05:22:47;;;;;;;3.65;2.92;;;11.10;99.90;;;;;;6257426;22;20011;-81
2022/07/17 05:25:12;;;;;;;4.63;2.60;;;11.20;99.90;;;;;;6283581;22;20012;-81
2022/07/17 05:27:38;;;;;;;4.70;3.13;;;11.40;99.90;;;;;;6259104;22;20015;-81
2022/07/17 05:30:04;;;;;;;4.13;2.40;;;11.60;99.90;;;;;;6283667;22;20012;-81
2022/07/17 05:32:30;;;;;;;6.32;2.50;;;11.70;99.90;;;;;;6258023;22;20402;-80
2022/07/17 05:34:55;;;;;;;4.85;2.67;;;11.80;99.90;;;;;;6284812;22;20011;-81
2022/07/17 05:37:21;;;;;;;5.90;2.30;;;11.90;99.90;;;;;;6259094;22;20505;-81
2022/07/17 05:39:46;;;;;;;2.95;2.30;;;12.00;99.90;;;;;;6262492;22;20446;-80
2022/07/17 05:42:12;;;;;;;5.18;2.38;;;12.10;99.90;;;;;;6260848;22;20012;-81
2022/07/17 05:44:38;;;;;;;3.83;2.53;;;12.20;99.90;;;;;;6287303;22;20011;-81
2022/07/17 05:47:03;;;;;;;4.22;2.80;;;12.30;99.90;;;;;;6262184;22;20064;-81
2022/07/17 05:49:29;;;;;;;5.05;2.42;;;12.50;99.90;;;;;;6262043;22;20041;-81
2022/07/17 05:51:54;;;;;;;4.43;2.33;;;12.50;99.90;;;;;;6263006;22;20027;-81
2022/07/17 05:54:20;;;;;;;4.90;2.10;;;12.70;99.90;;;;;;6285057;22;20015;-81
2022/07/17 05:56:46;;;;;;;4.93;2.10;;;12.70;99.90;;;;;;6281551;22;20015;-81
2022/07/17 05:59:11;;;;;;;3.85;2.10;;;12.80;99.90;;;;;;6281539;22;20042;-81
2022/07/17 06:01:37;;;;;;;4.75;2.25;;;12.90;99.90;;;;;;6256122;22;20014;-81
2022/07/17 06:04:02;;;;;;;3.85;2.60;;;13.00;99.90;;;;;;6253565;22;20011;-81
2022/07/17 06:06:28;;;;;;;4.47;2.13;;;13.00;99.90;;;;;;6254587;22;20011;-82
2022/07/17 06:08:54;;;;;;;3.97;2.05;;;13.10;99.90;;;;;;6254524;22;20007;-81
2022/07/17 06:11:19;;;;;;;4.20;2.15;;;13.20;99.90;;;;;;6280487;22;20007;-82
2022/07/17 06:24:06;;;;;;;4.47;1.88;;;13.30;99.90;;;;;;6288819;22;20351;-86
2022/07/17 06:26:32;;;;;;;4.68;1.77;;;13.30;99.90;;;;;;6252460;22;20017;-83
2022/07/17 06:28:57;;;;;;;2.90;2.00;;;13.30;99.90;;;;;;6254281;22;20007;-89
2022/07/17 06:31:23;;;;;;;6.07;1.90;;;13.30;99.90;;;;;;6253786;22;20080;-89
2022/07/17 06:33:49;;;;;;;2.53;1.65;;;13.30;99.90;;;;;;6254091;22;20012;-89
2022/07/17 06:36:14;;;;;;;2.72;2.00;;;13.20;99.90;;;;;;6278457;22;20033;-89
2022/07/17 06:38:40;;;;;;;3.63;1.88;;;13.20;99.90;;;;;;6254129;22;20037;-89
2022/07/17 06:41:05;;;;;;;5.28;2.03;;;13.20;99.90;;;;;;6253816;22;20011;-88
2022/07/17 06:43:31;;;;;;;4.95;2.00;;;13.30;99.90;;;;;;6253426;22;20011;-89
2022/07/17 06:46:00;;;;;;;4.80;2.33;;;13.30;99.90;;;;;;6252383;22;20451;-89
2022/07/17 06:48:26;;;;;;;4.03;2.20;;;13.40;99.90;;;;;;6253832;22;20041;-89
2022/07/17 06:50:51;;;;;;;3.22;2.30;;;13.40;99.90;;;;;;6254033;22;20089;-88
2022/07/17 06:53:17;;;;;;;3.67;2.13;;;13.40;99.90;;;;;;6278491;22;20003;-89
2022/07/17 06:55:43;;;;;;;4.00;2.17;;;13.50;99.90;;;;;;6252980;22;20038;-89
2022/07/17 06:58:08;;;;;;;3.83;2.10;;;13.50;99.90;;;;;;6253031;22;20014;-89
2022/07/17 07:00:34;;;;;;;4.47;1.85;;;13.60;99.90;;;;;;6252522;22;20012;-89
2022/07/17 07:03:00;;;;;;;2.35;1.50;;;13.60;99.90;;;;;;6278677;22;20053;-89
2022/07/17 07:05:26;;;;;;;4.30;1.38;;;13.70;99.90;;;;;;6253856;22;20340;-88
2022/07/17 07:07:51;;;;;;;5.05;1.35;;;13.80;99.90;;;;;;6252827;22;20046;-88
2022/07/17 07:10:17;;;;;;;3.47;0.98;;;13.80;99.90;;;;;;6253813;22;20350;-89
2022/07/17 07:12:43;;;;;;;3.22;1.15;;;13.80;99.90;;;;;;6252491;22;20015;-88
2022/07/17 07:15:09;;;;;;;2.88;0.93;;;14.00;99.90;;;;;;6253249;22;20473;-88
2022/07/17 07:17:36;;;;;;;7.25;1.27;;;14.10;99.90;;;;;;6253093;22;20014;-89
2022/07/17 07:20:05;;;;;;;2.95;0.80;;;14.10;99.90;;;;;;6253616;22;20029;-88
2022/07/17 07:22:31;;;;;;;3.00;1.00;;;14.20;99.90;;;;;;6252620;22;20041;-88
2022/07/17 07:24:57;;;;;;;2.13;0.80;;;14.40;99.90;;;;;;6252108;22;20137;-89
2022/07/17 07:27:22;;;;;;;2.33;0.75;;;14.50;99.90;;;;;;6252594;22;20058;-84
2022/07/17 07:29:48;;;;;;;1.48;0.57;;;14.60;99.90;;;;;;6253791;22;20015;-85
2022/07/17 07:35:56;;;;;;;3.72;0.63;;;14.90;99.90;;;;;;6181462;22;20023;-86
2022/07/17 07:38:21;;;;;;;4.63;1.00;;;15.00;99.90;;;;;;6252449;22;20279;-86
2022/07/17 07:40:47;;;;;;;2.20;0.90;;;15.00;99.90;;;;;;6252867;22;20061;-82
2022/07/17 07:43:12;;;;;;;2.45;0.82;;;15.20;99.90;;;;;;6253251;22;20018;-86
2022/07/17 07:45:38;;;;;;;2.80;0.80;;;15.30;99.90;;;;;;6253266;22;20011;-87
2022/07/17 07:48:04;;;;;;;4.07;0.75;;;15.50;99.90;;;;;;6253364;22;20019;-87
2022/07/17 07:50:29;;;;;;;3.92;0.90;;;15.60;99.90;;;;;;6252535;22;20034;-87
2022/07/17 07:52:55;;;;;;;5.22;1.00;;;15.80;99.90;;;;;;6253364;22;20023;-88
2022/07/17 07:55:23;;;;;;;2.80;0.80;;;16.30;99.90;;;;;;6253197;22;20026;-87
2022/07/17 07:57:50;;;;;;;4.03;0.80;;;17.00;99.90;;;;;;6252817;22;20068;-87
2022/07/17 08:00:16;;;;;;;3.85;0.90;;;17.60;99.90;;;;;;6253013;22;20038;-85
2022/07/17 08:02:45;;;;;;;3.95;0.90;;;18.30;99.90;;;;;;6253560;22;20011;-88
2022/07/17 08:05:14;;;;;;;3.33;0.70;;;18.90;99.90;;;;;;6253507;22;20434;-89
2022/07/17 08:07:39;;;;;;;3.75;0.75;;;19.40;99.90;;;;;;6253386;22;20007;-87
2022/07/17 08:10:05;;;;;;;2.00;0.60;;;19.90;99.90;;;;;;6252069;22;20482;-88
2022/07/17 08:12:31;;;;;;;4.00;0.63;;;20.30;99.90;;;;;;6252214;22;20047;-88
2022/07/17 08:14:56;;;;;;;2.53;0.73;;;20.70;99.90;;;;;;6253253;22;20016;-88
2022/07/17 08:17:22;;;;;;;4.20;0.70;;;21.20;99.90;;;;;;6251462;22;20450;-88
2022/07/17 08:19:48;;;;;;;1.25;0.50;;;21.70;99.90;;;;;;6253442;22;20030;-83
2022/07/17 08:22:13;;;;;;;2.80;0.50;;;22.10;99.90;;;;;;6250580;22;20016;-85
2022/07/17 08:24:39;;;;;;;3.30;0.73;;;22.60;99.90;;;;;;6278677;22;20145;-87
2022/07/17 08:27:05;;;;;;;2.38;0.70;;;22.90;99.90;;;;;;6253309;22;20086;-87
2022/07/17 08:29:30;;;;;;;2.38;1.63;;;22.80;99.90;;;;;;6253511;22;20003;-88
2022/07/17 08:31:56;;;;;;;2.92;0.70;;;22.80;99.50;;;;;;6253057;22;20014;-89
2022/07/17 08:34:22;;;;;;;3.45;0.65;;;22.90;97.40;;;;;;6253071;22;20007;-87
2022/07/17 08:36:48;;;;;;;2.75;0.70;;;22.90;95.20;;;;;;6252695;22;20011;-85
2022/07/17 08:39:14;;;;;;;2.88;0.60;;;23.30;95.10;;;;;;6253044;22;20007;-87
2022/07/17 08:41:43;;;;;;;3.88;0.60;;;23.60;93.00;;;;;;6253746;22;20008;-89
2022/07/17 08:44:08;;;;;;;2.47;0.70;;;23.80;90.10;;;;;;6252916;22;20083;-88
2022/07/17 08:46:36;;;;;;;4.10;0.80;;;23.90;86.60;;;;;;6252990;22;20022;-87
2022/07/17 08:49:03;;;;;;;3.60;0.80;;;24.10;87.60;;;;;;6254829;22;20015;-87
2022/07/17 08:51:29;;;;;;;2.92;0.70;;;24.40;87.90;;;;;;6255505;22;20015;-87
2022/07/17 08:53:56;;;;;;;2.53;0.68;;;24.90;86.00;;;;;;6254401;22;20007;-86
2022/07/17 08:56:22;;;;;;;2.85;1.15;;;25.30;83.50;;;;;;6255094;22;20355;-88
2022/07/17 08:58:48;;;;;;;3.30;0.60;;;25.70;81.60;;;;;;6255575;22;20017;-87
2022/07/17 09:01:14;;;;;;;3.00;0.70;;;26.00;79.60;;;;;;6255056;22;20008;-88
2022/07/17 09:03:41;;;;;;;2.05;0.57;;;26.30;77.80;;;;;;6254437;22;20493;-87
2022/07/17 09:06:18;;;;;;;2.90;0.73;;;26.60;74.40;;;;;;6254862;22;20011;-87
2022/07/17 09:08:44;;;;;;;3.70;0.60;;;26.70;71.30;;;;;;6255135;22;20098;-87
2022/07/17 09:11:10;;;;;;;2.17;0.73;;;26.80;72.30;;;;;;6254873;22;20389;-87
2022/07/17 09:13:36;;;;;;;4.07;0.60;;;26.60;69.80;;;;;;6280112;22;20050;-88
2022/07/17 09:16:12;;;;;;;4.10;1.67;;;26.40;69.00;;;;;;6280286;22;20019;-88
2022/07/17 09:18:50;;;;;;;2.33;0.77;;;26.20;67.10;;;;;;6254916;22;20038;-87
2022/07/17 09:21:28;;;;;;;2.53;0.60;;;26.10;66.60;;;;;;6280319;22;20007;-86
2022/07/17 09:24:01;;;;;;;1.63;0.60;;;26.20;68.70;;;;;;6254429;22;20007;-87
2022/07/17 09:26:27;;;;;;;1.77;0.50;;;26.40;68.10;;;;;;6254438;22;20015;-87
2022/07/17 09:28:53;;;;;;;2.53;0.50;;;26.70;68.10;;;;;;6254935;22;20011;-86
2022/07/17 09:31:31;;;;;;;0.80;0.50;;;26.90;67.70;;;;;;6255060;22;20011;-87
2022/07/17 09:33:57;;;;;;;2.28;0.60;;;27.20;65.20;;;;;;6254730;22;20060;-87
2022/07/17 09:36:24;;;;;;;3.47;0.73;;;27.30;65.80;;;;;;6279722;22;20011;-86
2022/07/17 09:38:54;;;;;;;2.55;0.60;;;27.40;64.90;;;;;;6254483;22;20061;-87
2022/07/17 09:41:21;;;;;;;1.90;0.52;;;27.40;64.90;;;;;;6255009;22;20007;-87
2022/07/17 09:43:50;;;;;;;3.50;0.63;;;27.50;64.80;;;;;;6254654;22;20026;-87
2022/07/17 09:46:18;;;;;;;1.42;0.50;;;27.60;64.30;;;;;;6279968;22;20007;-87
2022/07/17 09:48:49;;;;;;;3.05;0.80;;;27.70;64.70;;;;;;6254558;22;20014;-86
2022/07/17 09:51:24;;;;;;;2.10;0.55;;;27.90;64.50;;;;;;6254742;22;20015;-88
2022/07/17 09:54:00;;;;;;;1.23;0.65;;;28.10;61.60;;;;;;6256876;22;20015;-88
2022/07/17 09:56:28;;;;;;;1.80;0.60;;;27.90;60.80;;;;;;6254397;22;20510;-88
2022/07/17 09:59:08;;;;;;;1.33;0.60;;;27.70;60.90;;;;;;6254308;22;20447;-89
2022/07/17 10:01:35;;;;;;;3.30;0.75;;;27.60;58.70;;;;;;6253927;22;20007;-89
2022/07/17 10:04:02;;;;;;;2.65;0.55;;;27.30;59.30;;;;;;6254411;22;20458;-88
2022/07/17 10:06:28;;;;;;;2.85;0.70;;;26.90;59.90;;;;;;6254101;22;20061;-89
2022/07/17 10:08:55;;;;;;;1.55;0.60;;;26.80;60.70;;;;;;6279685;22;20069;-89
2022/07/17 10:11:22;;;;;;;3.10;0.77;;;26.90;60.10;;;;;;6280478;22;20022;-89
2022/07/17 10:13:50;;;;;;;1.95;0.50;;;26.80;59.00;;;;;;6254347;22;20011;-88
2022/07/17 10:16:27;;;;;;;1.63;0.68;;;26.40;58.70;;;;;;6254429;22;20481;-89
2022/07/17 10:18:54;;;;;;;1.92;0.70;;;26.10;58.50;;;;;;6254563;22;20011;-89
2022/07/17 10:21:22;;;;;;;2.13;0.70;;;26.00;59.20;;;;;;6254753;22;20007;-88
2022/07/17 10:24:06;;;;;;;1.90;0.68;;;25.90;60.50;;;;;;6253698;22;20086;-87
2022/07/17 10:26:43;;;;;;;2.33;0.80;;;26.00;60.30;;;;;;6254631;22;20026;-87
2022/07/17 10:29:33;;;;;;;1.83;0.90;;;26.30;60.90;;;;;;6253086;22;20022;-87
2022/07/17 10:32:00;;;;;;;2.28;0.70;;;26.60;60.00;;;;;;6254190;22;20011;-86
2022/07/17 10:34:47;;;;;;;1.33;0.60;;;26.70;60.00;;;;;;6254189;22;20015;-85
2022/07/17 10:37:21;;;;;;;1.58;0.60;;;26.80;60.70;;;;;;6279207;22;20073;-84
2022/07/17 10:39:55;;;;;;;6.10;0.90;;;27.00;60.40;;;;;;6251306;22;20007;-83
2022/07/17 10:42:37;;;;;;;3.83;0.82;;;27.10;59.70;;;;;;6251578;22;20011;-84
2022/07/17 10:45:10;;;;;;;1.80;0.60;;;27.20;58.50;;;;;;6254101;22;20011;-85
2022/07/17 10:48:07;;;;;;;3.03;0.73;;;27.30;59.10;;;;;;6254357;22;20044;-85
2022/07/17 10:50:42;;;;;;;1.23;0.70;;;27.40;60.30;;;;;;6222412;22;20059;-85
2022/07/17 10:53:20;;;;;;;1.88;0.77;;;27.70;60.60;;;;;;6278282;22;20007;-85
2022/07/17 10:55:54;;;;;;;1.40;0.60;;;28.00;59.50;;;;;;6278896;22;20339;-84
2022/07/17 10:58:32;;;;;;;1.70;0.80;;;28.30;58.60;;;;;;6252940;22;20007;-85
2022/07/17 11:01:10;;;;;;;1.52;0.60;;;28.50;58.20;;;;;;6253657;22;20277;-84
2022/07/17 11:03:42;;;;;;;2.17;0.80;;;28.60;56.70;;;;;;6252428;22;20011;-87
2022/07/17 11:06:35;;;;;;;2.45;0.68;;;28.40;56.80;;;;;;6253753;22;20014;-86
2022/07/17 11:09:08;;;;;;;1.93;0.80;;;28.40;58.80;;;;;;6278589;22;20014;-83
2022/07/17 11:11:51;;;;;;;2.88;0.90;;;28.50;58.70;;;;;;6252172;22;20018;-84
2022/07/17 11:14:22;;;;;;;1.80;0.75;;;28.60;57.80;;;;;;6253210;22;20014;-84
2022/07/17 11:16:48;;;;;;;2.10;0.93;;;28.80;58.50;;;;;;6253393;22;20014;-85
2022/07/17 11:19:35;;;;;;;2.15;0.70;;;28.90;58.20;;;;;;6253347;22;20259;-85
2022/07/17 11:22:03;;;;;;;1.92;0.65;;;29.10;55.00;;;;;;6252052;22;20431;-84
2022/07/17 11:24:55;;;;;;;2.33;0.82;;;29.10;57.10;;;;;;6253556;22;20042;-84
2022/07/17 11:27:28;;;;;;;3.03;1.13;;;28.90;53.60;;;;;;6244918;22;20011;-84
2022/07/17 11:29:56;;;;;;;2.38;0.82;;;28.80;56.60;;;;;;6250988;22;20501;-84
2022/07/17 11:32:22;;;;;;;2.90;0.80;;;28.80;56.30;;;;;;6251544;22;20135;-84
2022/07/17 11:34:48;;;;;;;1.20;0.63;;;28.90;56.30;;;;;;6253380;22;20451;-84
2022/07/17 11:37:14;;;;;;;2.35;0.70;;;29.00;56.90;;;;;;6253043;22;20018;-84
2022/07/17 11:39:50;;;;;;;2.17;0.90;;;29.20;56.40;;;;;;6278457;22;20003;-83
2022/07/17 11:42:18;;;;;;;1.98;0.80;;;29.30;55.70;;;;;;6252645;22;20054;-84
2022/07/17 11:44:44;;;;;;;3.17;0.75;;;29.30;55.80;;;;;;6253154;22;20014;-84
2022/07/17 11:47:12;;;;;;;2.17;0.88;;;29.50;55.90;;;;;;6252954;22;20007;-84
2022/07/17 11:49:42;;;;;;;1.85;1.05;;;29.50;55.40;;;;;;6252181;22;20008;-84
2022/07/17 11:52:09;;;;;;;2.55;1.33;;;29.60;55.50;;;;;;6252961;22;20022;-84
2022/07/17 11:54:47;;;;;;;1.85;0.80;;;29.70;55.60;;;;;;6278495;22;20042;-84
2022/07/17 11:57:13;;;;;;;2.05;0.77;;;29.80;53.50;;;;;;6252677;22;20090;-84
2022/07/17 11:59:39;;;;;;;1.65;0.82;;;29.70;54.00;;;;;;6277042;22;20030;-84
2022/07/17 12:02:14;;;;;;;2.38;0.93;;;29.70;55.70;;;;;;6252424;22;20479;-84
2022/07/17 12:04:49;;;;;;;1.95;0.90;;;29.70;56.10;;;;;;6251202;22;20011;-83
2022/07/17 12:07:15;;;;;;;2.65;0.88;;;29.80;54.60;;;;;;6251694;22;20351;-84
2022/07/17 12:09:41;;;;;;;2.80;0.93;;;29.80;54.30;;;;;;6253009;22;20047;-86
2022/07/17 12:12:17;;;;;;;3.28;0.93;;;29.70;53.80;;;;;;6252711;22;20011;-84
2022/07/17 12:14:58;;;;;;;2.33;0.77;;;29.50;54.00;;;;;;6252756;22;20101;-84
2022/07/17 12:17:36;;;;;;;4.60;0.90;;;29.50;54.10;;;;;;6251176;22;20347;-85
2022/07/17 12:20:06;;;;;;;2.13;0.90;;;29.50;53.50;;;;;;6278116;22;20347;-85
2022/07/17 13:01:34;;;;;;;2.63;1.20;;;30.00;54.10;;;;;;6240498;22;20044;-79
2022/07/17 13:04:00;;;;;;;4.65;1.30;;;30.30;53.90;;;;;;6218149;23;20356;-79
2022/07/17 13:06:26;;;;;;;3.45;1.30;;;30.40;53.10;;;;;;6218845;23;20390;-80
2022/07/17 13:08:51;;;;;;;2.92;1.52;;;30.50;53.40;;;;;;6219401;23;20043;-80
2022/07/17 13:11:17;;;;;;;2.47;1.40;;;30.50;53.10;;;;;;6196143;23;20034;-79
2022/07/17 13:24:05;;;;;;;1.67;1.30;;;30.20;51.10;;;;;;6256103;22;20328;-83
2022/07/17 13:26:30;;;;;;;3.40;1.63;;;30.10;51.10;;;;;;6222167;22;20090;-83
2022/07/17 13:28:56;;;;;;;3.70;1.70;;;30.00;51.30;;;;;;6222443;22;20085;-83
2022/07/17 13:31:22;;;;;;;4.57;1.67;;;30.00;52.50;;;;;;6247849;22;20448;-84
2022/07/17 13:33:47;;;;;;;3.00;1.58;;;30.10;52.80;;;;;;6201431;23;20016;-84
2022/07/17 13:36:13;;;;;;;3.17;1.70;;;30.20;53.00;;;;;;6194005;23;20044;-84
2022/07/17 13:38:38;;;;;;;2.35;1.40;;;30.30;52.70;;;;;;6219304;23;20083;-84
2022/07/17 13:41:05;;;;;;;2.97;1.58;;;30.50;53.60;;;;;;6194192;23;20011;-84
2022/07/17 13:43:31;;;;;;;3.20;1.80;;;30.60;53.10;;;;;;6194027;23;20008;-84
2022/07/17 13:45:57;;;;;;;3.05;1.67;;;30.70;53.20;;;;;;6193827;23;20191;-84
2022/07/17 13:48:22;;;;;;;2.95;1.80;;;30.90;52.30;;;;;;6194342;23;20051;-84
2022/07/17 13:50:48;;;;;;;2.63;1.63;;;30.90;53.30;;;;;;6194302;23;20016;-84
2022/07/17 13:53:14;;;;;;;3.13;1.70;;;30.90;53.00;;;;;;6194018;23;20087;-85
2022/07/17 13:55:39;;;;;;;2.28;1.52;;;30.90;53.00;;;;;;6218617;23;20050;-84
2022/07/17 13:58:06;;;;;;;3.65;1.85;;;30.90;52.80;;;;;;6193659;23;20433;-83
2022/07/17 14:00:32;;;;;;;4.82;2.00;;;30.90;52.70;;;;;;6193461;23;20087;-83
2022/07/17 14:02:57;;;;;;;4.45;1.80;;;30.90;51.90;;;;;;6193564;23;20103;-83
2022/07/17 14:05:23;;;;;;;3.10;1.75;;;30.80;51.40;;;;;;6194039;23;20004;-83